Terminal Aerodrome Forecast
Issued by NWS

Current Version | Previous Version | Text Only | Print | Product List | Glossary On
Versions: 1 2 3 4 5 6 7 8 9 10 11 12 13
143
FTUS42 KTBW 192339
TAFLAL
TAF
KLAL 192339Z 2000/2024 29010KT P6SM SCT045 SCT250
     FM200200 29004KT P6SM FEW040 SCT250
     FM200800 VRB03KT 4SM BR SCT008 SCT250
     FM201300 03007KT P6SM FEW030 SCT250
     FM202100 05014G19KT P6SM SCT040 SCT250
      AMD NOT SKED 2003/2011=

USA.gov is the U.S. government's official web portal to all federal, state and local government web resources and services.